Time;durP1;ratioP1;P1;durP2;ratioP2;P2;SDS_P1;SDS_P2;PMS_P1;PMS_P2;Temp;Humidity;BMP_temperature;BMP_pressure;BME280_temperature;BME280_humidity;BME280_pressure;Samples;Min_cycle;Max_cycle;Signal;HPM_P1;HPM_P2
2021/06/09 00:01:51;;;;;;;25.02;22.83;;;16.10;99.90;;;16.97;100.00;98366.22;5223475;28;20202;-58
2021/06/09 00:04:24;;;;;;;29.42;26.50;;;16.00;99.90;;;16.96;100.00;98356.69;5216145;28;20209;-59
2021/06/09 00:06:58;;;;;;;35.60;32.10;;;16.10;99.90;;;16.97;100.00;98368.81;5226753;28;20644;-58
2021/06/09 00:09:30;;;;;;;33.70;30.23;;;16.10;99.90;;;16.94;100.00;98363.53;5216457;28;20221;-59
2021/06/09 00:12:05;;;;;;;34.53;31.15;;;16.10;99.90;;;16.92;100.00;98364.28;5225637;28;20201;-58
2021/06/09 00:14:37;;;;;;;31.02;28.08;;;16.00;99.90;;;16.95;100.00;98367.88;5225116;28;20200;-57
2021/06/09 00:17:10;;;;;;;30.70;27.80;;;16.00;99.90;;;16.93;100.00;98369.50;5226123;28;20221;-58
2021/06/09 00:19:42;;;;;;;33.63;30.35;;;16.00;99.90;;;16.94;100.00;98376.44;5226552;28;20197;-58
2021/06/09 00:22:16;;;;;;;35.33;31.92;;;16.00;99.90;;;16.93;100.00;98364.34;5225643;28;20189;-59
2021/06/09 00:24:49;;;;;;;36.10;32.58;;;16.10;99.90;;;16.94;100.00;98357.47;5225284;28;20193;-59
2021/06/09 00:27:22;;;;;;;35.25;31.88;;;16.10;99.90;;;16.96;100.00;98361.00;5225256;28;20685;-58
2021/06/09 00:29:55;;;;;;;40.97;36.75;;;16.00;99.90;;;16.95;100.00;98360.13;5226273;28;20593;-58
2021/06/09 00:32:27;;;;;;;37.50;33.72;;;16.10;99.90;;;16.94;100.00;98366.13;5225116;28;20193;-59
2021/06/09 00:35:00;;;;;;;31.00;28.15;;;16.10;99.90;;;17.02;100.00;98366.41;5225294;28;20197;-56
2021/06/09 00:37:34;;;;;;;28.48;25.92;;;16.00;99.90;;;16.95;100.00;98367.88;5225525;28;20290;-58
2021/06/09 00:40:10;;;;;;;30.48;27.75;;;16.00;99.90;;;16.83;100.00;98360.50;5225686;28;20200;-59
2021/06/09 00:43:04;;;;;;;32.88;29.67;;;15.80;99.90;;;16.79;100.00;98368.94;5225274;28;20685;-59
2021/06/09 00:45:40;;;;;;;31.52;28.60;;;15.90;99.90;;;16.78;100.00;98366.31;5226016;28;20308;-59
2021/06/09 00:48:13;;;;;;;30.10;27.23;;;15.90;99.90;;;16.80;100.00;98360.38;5225179;28;20201;-58
2021/06/09 00:50:45;;;;;;;29.48;26.70;;;15.90;99.90;;;16.82;100.00;98360.44;5225881;28;20640;-58
2021/06/09 00:53:32;;;;;;;30.15;27.23;;;15.90;99.90;;;16.86;100.00;98357.16;5224909;28;20207;-58
2021/06/09 00:56:09;;;;;;;29.95;27.15;;;15.90;99.90;;;16.88;100.00;98359.00;5225766;28;20225;-58
2021/06/09 00:58:44;;;;;;;30.83;28.00;;;15.90;99.90;;;16.89;100.00;98355.59;5225126;28;20196;-59
2021/06/09 01:01:20;;;;;;;33.42;30.17;;;15.90;99.90;;;16.85;100.00;98352.81;5225981;28;20207;-58
2021/06/09 01:03:53;;;;;;;33.75;30.23;;;15.90;99.90;;;16.80;100.00;98356.94;5222986;28;20228;-59
2021/06/09 01:06:25;;;;;;;36.50;32.72;;;15.90;99.90;;;16.73;100.00;98357.44;5225154;28;20228;-59
2021/06/09 01:09:00;;;;;;;34.65;31.23;;;15.90;99.90;;;16.69;100.00;98361.63;5224373;28;20217;-59
2021/06/09 01:11:33;;;;;;;34.70;31.35;;;15.80;99.90;;;16.69;100.00;98368.47;5225002;28;20280;-59
2021/06/09 01:14:05;;;;;;;29.15;26.48;;;15.80;99.90;;;16.74;100.00;98361.78;5224416;28;20197;-59
2021/06/09 01:16:38;;;;;;;28.50;25.90;;;15.80;99.90;;;16.75;100.00;98366.16;5225911;28;20228;-59
2021/06/09 01:19:12;;;;;;;32.47;29.40;;;15.80;99.90;;;16.75;100.00;98360.97;5210996;28;20193;-58
2021/06/09 01:21:46;;;;;;;32.78;29.73;;;15.70;99.90;;;16.66;100.00;98372.69;5205411;28;20201;-59
2021/06/09 01:24:19;;;;;;;35.65;32.05;;;15.60;99.90;;;16.54;99.89;98371.28;5212524;28;20203;-59
2021/06/09 01:26:52;;;;;;;36.40;32.85;;;15.60;99.90;;;16.51;100.00;98371.16;5224246;28;20217;-59
2021/06/09 01:29:26;;;;;;;32.80;29.67;;;15.60;99.90;;;16.49;100.00;98373.69;5225665;28;20220;-58
2021/06/09 01:31:59;;;;;;;32.80;29.40;;;15.50;99.90;;;16.51;99.71;98377.22;5215965;28;20672;-57
2021/06/09 01:34:32;;;;;;;30.40;27.60;;;15.50;99.90;;;16.43;100.00;98374.31;5224003;28;20265;-59
2021/06/09 01:37:06;;;;;;;34.90;31.40;;;15.60;99.90;;;16.41;100.00;98369.91;5209601;28;20594;-56
2021/06/09 01:39:39;;;;;;;33.30;30.13;;;15.50;99.90;;;16.39;100.00;98371.53;5213210;28;20200;-58
2021/06/09 01:42:12;;;;;;;32.20;29.10;;;15.50;99.90;;;16.46;100.00;98381.31;5211633;28;20207;-57
2021/06/09 01:44:44;;;;;;;31.05;28.10;;;15.50;99.90;;;16.48;99.58;98366.75;5224770;28;20215;-59
2021/06/09 01:47:17;;;;;;;31.05;28.17;;;15.40;99.90;;;16.42;100.00;98376.81;5225139;28;20193;-58
2021/06/09 01:49:51;;;;;;;30.33;27.50;;;15.50;99.90;;;16.43;100.00;98373.44;5225323;28;20229;-59
2021/06/09 01:52:25;;;;;;;30.85;27.90;;;15.50;99.90;;;16.46;100.00;98381.31;5219477;28;20209;-59
2021/06/09 01:54:58;;;;;;;32.15;29.00;;;15.50;99.90;;;16.52;100.00;98373.81;5211057;28;20219;-57
2021/06/09 01:57:31;;;;;;;30.90;27.95;;;15.50;99.90;;;16.50;100.00;98370.28;5223802;28;20201;-59
2021/06/09 02:00:09;;;;;;;31.40;28.48;;;15.60;99.90;;;16.48;100.00;98377.06;5225338;28;20193;-58
2021/06/09 02:02:42;;;;;;;34.70;31.27;;;15.50;99.90;;;16.47;99.86;98370.16;5223733;28;20197;-58
2021/06/09 02:05:14;;;;;;;36.10;32.50;;;15.50;99.90;;;16.47;99.40;98372.72;5223314;28;20223;-58
2021/06/09 02:07:48;;;;;;;32.80;29.58;;;15.50;99.90;;;16.52;99.47;98368.66;5221271;28;20189;-59
2021/06/09 02:10:22;;;;;;;35.22;31.83;;;15.50;99.90;;;16.50;100.00;98366.81;5224863;28;20212;-58
2021/06/09 02:12:58;;;;;;;35.42;31.85;;;15.60;99.90;;;16.51;100.00;98366.00;5217418;28;20224;-57
2021/06/09 02:15:31;;;;;;;40.30;36.22;;;15.60;99.90;;;16.52;100.00;98362.63;5227573;28;20223;-57
2021/06/09 02:18:09;;;;;;;34.17;30.48;;;15.60;99.90;;;16.50;100.00;98365.13;5228174;28;20203;-59
2021/06/09 02:20:44;;;;;;;37.63;33.72;;;15.60;99.90;;;16.54;100.00;98361.88;5228200;28;20197;-58
2021/06/09 02:23:23;;;;;;;34.75;31.30;;;15.60;99.90;;;16.55;100.00;98360.16;5227147;28;20192;-59
2021/06/09 02:25:58;;;;;;;34.00;30.55;;;15.60;99.90;;;16.55;100.00;98357.59;5228273;28;20213;-59
2021/06/09 02:28:33;;;;;;;34.70;31.20;;;15.60;99.90;;;16.66;100.00;98359.78;5227499;28;20189;-59
2021/06/09 02:31:06;;;;;;;35.70;32.00;;;15.60;99.90;;;16.71;99.27;98359.06;5227883;28;20201;-58
2021/06/09 02:33:39;;;;;;;35.50;31.80;;;15.60;99.90;;;16.70;99.30;98347.88;5227290;28;20613;-59
2021/06/09 02:36:12;;;;;;;37.08;33.08;;;15.60;99.90;;;16.69;99.72;98348.72;5228387;28;20227;-59
2021/06/09 02:38:46;;;;;;;34.15;30.73;;;15.70;99.90;;;16.68;100.00;98344.34;5219034;28;20204;-58
2021/06/09 02:41:19;;;;;;;36.13;32.22;;;15.60;99.90;;;16.67;99.84;98338.31;5227605;28;20208;-59
2021/06/09 02:43:53;;;;;;;33.95;30.38;;;15.60;99.90;;;16.69;99.83;98332.34;5218287;28;20578;-58
2021/06/09 02:46:31;;;;;;;37.08;32.80;;;15.70;99.90;;;16.69;100.00;98335.81;5228131;28;20216;-58
2021/06/09 02:49:09;;;;;;;36.92;32.92;;;15.70;99.90;;;16.63;100.00;98344.16;5223900;28;20210;-59
2021/06/09 02:51:45;;;;;;;40.47;32.47;;;15.70;99.90;;;16.60;100.00;98340.59;5227304;28;20197;-59
2021/06/09 02:54:31;;;;;;;40.25;33.60;;;15.60;99.90;;;16.53;100.00;98344.59;5226472;28;20219;-58
2021/06/09 02:57:17;;;;;;;31.35;28.25;;;15.70;99.90;;;16.47;100.00;98346.94;5221791;28;20224;-59
2021/06/09 03:00:00;;;;;;;35.05;31.50;;;15.70;99.90;;;16.49;100.00;98353.03;5219705;28;20190;-59
2021/06/09 03:02:42;;;;;;;35.38;31.67;;;15.60;99.90;;;16.50;100.00;98348.75;5208080;28;20208;-58
2021/06/09 03:05:22;;;;;;;32.70;29.40;;;15.60;99.90;;;16.47;100.00;98346.94;5217581;28;20573;-58
2021/06/09 03:08:03;;;;;;;35.25;31.00;;;15.50;99.90;;;16.47;100.00;98343.47;5227740;28;20202;-59
2021/06/09 03:10:50;;;;;;;32.75;29.35;;;15.60;99.90;;;16.47;100.00;98338.31;5218393;28;20590;-59
2021/06/09 03:13:51;;;;;;;29.40;26.52;;;15.60;99.90;;;16.46;100.00;98342.59;5227723;28;20201;-58
2021/06/09 03:16:30;;;;;;;33.45;30.00;;;15.60;99.90;;;16.47;100.00;98344.34;5213408;28;20221;-58
2021/06/09 03:19:06;;;;;;;34.80;31.05;;;15.50;99.90;;;16.49;100.00;98340.16;5213015;28;20262;-58
2021/06/09 03:21:44;;;;;;;32.80;29.48;;;15.60;99.90;;;16.54;100.00;98346.38;5227800;28;20197;-58
2021/06/09 03:24:27;;;;;;;37.45;33.47;;;15.60;99.90;;;16.47;100.00;98338.31;5219720;28;20202;-57
2021/06/09 03:27:06;;;;;;;34.33;30.27;;;15.60;99.90;;;16.51;100.00;98347.94;5226675;28;20595;-58
2021/06/09 03:29:45;;;;;;;37.05;33.17;;;15.60;99.90;;;16.50;100.00;98346.19;5226502;28;20217;-58
2021/06/09 03:32:23;;;;;;;33.00;29.63;;;15.60;99.90;;;16.51;100.00;98345.34;5227237;28;20197;-59
2021/06/09 03:35:01;;;;;;;36.85;33.00;;;15.60;99.90;;;16.53;100.00;98344.59;5226863;28;20219;-57
2021/06/09 03:37:39;;;;;;;40.30;35.58;;;15.60;99.90;;;16.47;100.00;98346.94;5226688;28;20197;-57
2021/06/09 03:40:19;;;;;;;41.97;36.45;;;15.60;99.90;;;16.46;100.00;98352.91;5227528;28;20200;-58
2021/06/09 03:42:58;;;;;;;36.75;32.83;;;15.60;99.90;;;16.44;100.00;98351.97;5219977;28;20569;-58
2021/06/09 03:45:35;;;;;;;35.88;32.17;;;15.60;99.90;;;16.39;100.00;98348.31;5206762;28;20605;-59
2021/06/09 03:48:10;;;;;;;35.42;31.83;;;15.50;99.90;;;16.36;100.00;98346.47;5206808;28;20197;-58
2021/06/09 03:50:44;;;;;;;34.28;30.90;;;15.40;99.90;;;16.32;100.00;98343.72;5206554;28;20235;-58
2021/06/09 03:53:18;;;;;;;38.10;34.03;;;15.40;99.90;;;16.35;100.00;98342.13;5212505;28;20196;-59
2021/06/09 03:55:52;;;;;;;36.10;32.38;;;15.40;99.90;;;16.36;100.00;98346.47;5227014;28;20411;-59
2021/06/09 03:58:28;;;;;;;38.08;34.05;;;15.40;99.90;;;16.41;100.00;98346.69;5226299;28;21441;-59
2021/06/09 04:01:01;;;;;;;35.10;31.40;;;15.50;99.90;;;16.44;100.00;98359.72;5223737;28;20193;-58
2021/06/09 04:03:38;;;;;;;37.63;33.58;;;15.50;99.90;;;16.46;100.00;98349.47;5221734;28;20662;-58
2021/06/09 04:06:17;;;;;;;34.42;31.02;;;15.60;99.90;;;16.47;100.00;98343.47;5218758;28;20218;-59
2021/06/09 04:08:50;;;;;;;37.60;33.60;;;15.50;99.90;;;16.55;100.00;98348.13;5214278;28;20201;-58
2021/06/09 04:11:24;;;;;;;32.42;29.23;;;15.70;99.90;;;16.64;100.00;98347.63;5226456;28;20224;-58
2021/06/09 04:13:59;;;;;;;34.08;30.77;;;15.70;99.90;;;16.69;100.00;98340.97;5219056;28;20200;-57
2021/06/09 04:16:36;;;;;;;32.95;29.85;;;15.70;99.90;;;16.73;100.00;98354.88;5216279;28;20294;-58
2021/06/09 04:19:11;;;;;;;33.00;29.80;;;15.80;99.90;;;16.75;100.00;98342.91;5216915;28;20202;-58
2021/06/09 04:21:43;;;;;;;33.22;29.95;;;15.80;99.90;;;16.74;99.83;98347.19;5212518;28;20200;-58
2021/06/09 04:24:16;;;;;;;33.63;30.33;;;15.70;99.90;;;16.76;99.99;98343.00;5208068;28;20202;-59
2021/06/09 04:26:52;;;;;;;34.63;31.20;;;15.80;99.90;;;16.77;99.91;98343.88;5225971;28;20221;-58
2021/06/09 04:29:29;;;;;;;34.35;31.05;;;15.70;99.90;;;16.75;99.20;98345.50;5219078;28;20200;-58
2021/06/09 04:32:06;;;;;;;30.58;27.55;;;15.70;99.90;;;16.72;99.02;98345.38;5205652;28;20201;-58
2021/06/09 04:34:46;;;;;;;32.03;28.70;;;15.70;99.90;;;16.79;98.57;98342.25;5213593;28;20228;-59
2021/06/09 04:37:22;;;;;;;31.27;28.35;;;15.80;99.90;;;16.81;98.33;98341.47;5225715;28;20710;-58
2021/06/09 04:39:54;;;;;;;32.78;29.60;;;15.80;99.90;;;16.83;98.10;98339.84;5214281;28;20199;-58
2021/06/09 04:42:27;;;;;;;33.97;30.67;;;15.80;99.90;;;16.85;98.40;98342.47;5223285;28;20197;-58
2021/06/09 04:45:01;;;;;;;35.83;32.13;;;15.80;99.90;;;16.88;99.82;98350.34;5224148;28;20213;-59
2021/06/09 04:47:34;;;;;;;30.65;27.73;;;16.00;99.90;;;16.91;99.29;98345.31;5225787;28;20203;-58
2021/06/09 04:50:09;;;;;;;31.30;28.25;;;15.90;99.90;;;16.97;97.73;98353.31;5221073;28;20316;-58
2021/06/09 04:52:42;;;;;;;33.65;30.45;;;15.90;99.90;;;16.95;97.60;98347.22;5204928;28;20208;-59
2021/06/09 04:55:16;;;;;;;33.50;30.30;;;15.90;99.90;;;16.92;98.77;98347.09;5205859;28;20226;-58
2021/06/09 04:57:48;;;;;;;32.67;29.48;;;15.90;99.90;;;16.92;98.95;98349.66;5223801;28;20193;-59
2021/06/09 05:00:24;;;;;;;32.80;29.60;;;16.00;99.90;;;16.97;99.22;98355.00;5217493;28;20247;-57
2021/06/09 05:02:57;;;;;;;33.53;30.13;;;16.00;99.90;;;17.07;97.76;98355.44;5214110;28;20193;-61
2021/06/09 05:05:30;;;;;;;32.42;29.13;;;16.00;99.90;;;17.15;97.12;98355.75;5205326;28;20710;-60
2021/06/09 05:08:04;;;;;;;33.38;30.15;;;16.10;99.90;;;17.11;97.90;98352.16;5205431;28;20227;-59
2021/06/09 05:10:41;;;;;;;34.72;30.88;;;16.10;99.90;;;17.14;97.72;98347.91;5219652;28;20227;-59
2021/06/09 05:13:18;;;;;;;33.65;29.88;;;16.20;99.90;;;17.21;96.75;98345.63;5211316;28;20204;-59
2021/06/09 05:15:58;;;;;;;39.10;32.15;;;16.10;99.90;;;17.33;94.96;98355.56;5222042;28;20231;-59
2021/06/09 05:18:39;;;;;;;36.97;30.77;;;16.10;99.90;;;17.27;95.78;98347.59;5224912;28;20571;-59
2021/06/09 05:21:12;;;;;;;38.35;30.70;;;16.20;99.90;;;17.29;95.85;98345.94;5217552;28;20607;-58
2021/06/09 05:23:49;;;;;;;41.22;31.25;;;16.20;99.90;;;17.33;95.49;98345.22;5221909;28;20200;-58
2021/06/09 05:26:24;;;;;;;42.13;34.03;;;16.30;99.90;;;17.44;95.56;98346.53;5205469;28;20224;-58
2021/06/09 05:29:04;;;;;;;43.63;34.50;;;16.40;99.90;;;17.49;95.07;98350.16;5215086;28;20203;-59
2021/06/09 05:31:40;;;;;;;41.30;31.20;;;16.40;99.90;;;17.52;95.30;98350.28;5216850;28;20217;-58
2021/06/09 05:34:14;;;;;;;43.28;33.58;;;16.50;99.90;;;17.62;94.42;98348.03;5224428;28;20196;-59
2021/06/09 05:36:48;;;;;;;41.70;34.20;;;16.50;99.90;;;17.61;95.36;98346.28;5223175;28;20222;-61
2021/06/09 05:39:22;;;;;;;47.42;37.30;;;16.60;99.90;;;17.62;94.88;98341.16;5206044;28;20205;-58
2021/06/09 05:41:54;;;;;;;46.67;34.45;;;16.60;99.90;;;17.69;95.01;98348.31;5222505;28;20186;-59
2021/06/09 05:44:29;;;;;;;48.25;38.50;;;16.70;99.90;;;17.66;94.71;98337.88;5223717;28;20220;-58
2021/06/09 05:47:04;;;;;;;51.90;38.80;;;16.70;99.90;;;17.73;94.67;98347.59;5216244;28;20244;-58
2021/06/09 05:49:37;;;;;;;45.97;35.72;;;16.70;99.90;;;17.73;94.55;98345.00;5219574;28;20232;-59
2021/06/09 05:52:11;;;;;;;47.58;36.72;;;16.70;99.90;;;17.70;95.05;98350.06;5219308;28;20216;-57
2021/06/09 05:54:45;;;;;;;48.95;37.08;;;16.70;99.90;;;17.75;95.13;98352.84;5212894;28;20202;-59
2021/06/09 05:57:18;;;;;;;45.63;35.13;;;16.80;99.90;;;17.77;94.95;98346.91;5224904;28;20228;-58
2021/06/09 05:59:50;;;;;;;48.75;38.85;;;16.90;99.90;;;17.77;94.29;98346.03;5214038;28;21654;-59
2021/06/09 06:02:29;;;;;;;45.10;34.75;;;16.80;99.90;;;17.79;94.88;98360.78;5223933;28;20680;-58
2021/06/09 06:05:01;;;;;;;46.35;37.47;;;16.80;99.90;;;17.92;94.29;98356.94;5224133;28;20204;-58
2021/06/09 06:07:35;;;;;;;42.90;36.15;;;16.90;99.90;;;18.07;93.46;98353.16;5214962;28;20430;-59
2021/06/09 06:10:09;;;;;;;40.45;34.88;;;17.00;99.90;;;18.17;92.60;98352.63;5207092;28;20233;-58
2021/06/09 06:12:43;;;;;;;35.28;30.25;;;17.00;99.90;;;18.11;92.63;98355.88;5208275;28;20212;-58
2021/06/09 06:15:16;;;;;;;39.22;33.38;;;17.00;99.90;;;18.08;92.72;98360.06;5225637;28;20217;-58
2021/06/09 06:17:50;;;;;;;40.63;33.58;;;17.00;99.90;;;18.15;93.11;98354.31;5224875;28;20201;-58
2021/06/09 06:20:24;;;;;;;36.83;32.58;;;17.10;99.90;;;18.23;93.55;98363.22;5219172;28;20243;-59
2021/06/09 06:22:57;;;;;;;39.95;33.53;;;17.20;99.90;;;18.30;93.50;98354.81;5216211;28;20205;-59
2021/06/09 06:25:31;;;;;;;38.53;34.42;;;17.30;99.90;;;18.36;93.93;98361.94;5213923;28;20634;-59
2021/06/09 06:28:04;;;;;;;38.13;33.88;;;17.40;99.90;;;18.39;93.23;98359.44;5218920;28;20192;-59
2021/06/09 06:30:37;;;;;;;33.70;29.92;;;17.40;99.90;;;18.48;93.18;98359.75;5223859;28;20693;-59
2021/06/09 06:33:15;;;;;;;37.15;32.83;;;17.40;99.90;;;18.56;92.78;98363.47;5217730;28;20225;-58
2021/06/09 06:35:50;;;;;;;32.30;28.77;;;17.50;99.90;;;18.63;92.54;98369.75;5208637;28;20247;-58
2021/06/09 06:38:23;;;;;;;36.28;32.38;;;17.50;99.90;;;18.64;92.89;98361.16;5224585;28;20472;-59
2021/06/09 06:40:56;;;;;;;37.80;33.72;;;17.60;99.90;;;18.66;91.24;98375.03;5208564;28;20196;-59
2021/06/09 06:43:29;;;;;;;36.15;32.20;;;17.60;99.90;;;18.68;91.55;98368.19;5213189;28;20212;-58
2021/06/09 06:46:02;;;;;;;34.90;31.20;;;17.60;99.90;;;18.80;91.08;98363.47;5216189;28;20221;-59
2021/06/09 06:48:38;;;;;;;33.33;29.90;;;17.70;99.90;;;18.89;91.03;98371.53;5223533;28;20202;-59
2021/06/09 06:51:11;;;;;;;30.70;27.70;;;17.80;99.90;;;19.00;90.85;98361.50;5220204;28;20222;-60
2021/06/09 06:53:51;;;;;;;29.85;26.85;;;17.90;99.90;;;19.15;90.24;98366.28;5226906;28;20189;-56
2021/06/09 06:56:25;;;;;;;29.45;26.65;;;18.00;99.90;;;19.23;90.12;98364.81;5221968;28;20535;-59
2021/06/09 06:58:58;;;;;;;31.42;28.15;;;18.10;99.90;;;19.49;88.99;98365.63;5224472;28;20287;-59
2021/06/09 07:01:34;;;;;;;30.95;27.75;;;18.30;99.90;;;19.65;87.24;98369.56;5218603;28;20193;-59
2021/06/09 07:04:09;;;;;;;29.88;27.08;;;18.40;99.90;;;19.77;87.19;98375.13;5214401;28;20205;-58
2021/06/09 07:06:44;;;;;;;28.10;25.40;;;18.60;99.90;;;20.01;84.60;98371.47;5216529;28;20316;-59
2021/06/09 07:09:25;;;;;;;27.67;25.15;;;18.70;99.90;;;20.15;82.90;98375.31;5226931;28;20194;-58
2021/06/09 07:11:59;;;;;;;22.88;20.73;;;18.70;99.90;;;20.40;83.10;98370.78;5226448;28;20221;-57
2021/06/09 07:14:32;;;;;;;24.13;21.92;;;19.00;99.90;;;20.75;81.60;98365.66;5225596;28;20193;-58
2021/06/09 07:17:05;;;;;;;25.67;23.42;;;19.30;99.90;;;21.06;78.63;98369.84;5227592;28;20220;-59
2021/06/09 07:19:40;;;;;;;24.80;22.48;;;19.50;99.90;;;20.99;79.71;98371.44;5222651;28;20565;-58
2021/06/09 07:22:19;;;;;;;27.67;25.02;;;19.50;99.90;;;20.94;80.06;98370.44;5227838;28;20197;-58
2021/06/09 07:24:52;;;;;;;25.23;22.83;;;19.60;99.90;;;20.96;80.26;98371.38;5227094;28;20208;-59
2021/06/09 07:27:28;;;;;;;27.10;24.52;;;19.60;99.90;;;20.99;80.08;98366.25;5221034;28;20193;-59
2021/06/09 07:30:02;;;;;;;26.27;23.85;;;19.60;99.90;;;21.08;79.10;98366.47;5227509;28;20201;-59
2021/06/09 07:32:38;;;;;;;26.77;24.27;;;19.60;99.90;;;21.14;78.58;98364.00;5226937;28;20212;-59
2021/06/09 07:35:13;;;;;;;25.55;23.15;;;19.60;99.90;;;21.21;78.34;98371.97;5225334;28;20759;-57
2021/06/09 07:37:48;;;;;;;25.00;22.80;;;19.60;99.90;;;21.12;78.31;98368.31;5227400;28;20211;-59
2021/06/09 07:40:25;;;;;;;26.10;23.70;;;19.60;99.90;;;21.09;78.44;98373.44;5227889;28;20231;-58
2021/06/09 07:43:05;;;;;;;27.02;24.55;;;19.60;99.90;;;21.07;78.26;98377.72;5226731;28;20212;-58
2021/06/09 07:45:40;;;;;;;26.55;24.17;;;19.50;99.90;;;21.02;79.27;98375.84;5226307;28;20213;-58
2021/06/09 07:48:17;;;;;;;24.40;22.25;;;19.60;99.90;;;21.15;79.50;98377.91;5227205;28;20289;-58
2021/06/09 07:50:53;;;;;;;25.75;23.20;;;19.70;99.90;;;21.36;78.55;98367.09;5221088;28;20784;-58
2021/06/09 07:53:27;;;;;;;25.90;23.55;;;19.90;99.90;;;21.48;76.76;98380.41;5226999;28;20242;-59
2021/06/09 07:56:00;;;;;;;26.67;24.30;;;19.90;99.90;;;21.46;75.33;98376.91;5226802;28;20225;-57
2021/06/09 07:58:34;;;;;;;26.83;24.42;;;19.80;99.90;;;21.22;76.81;98373.72;5226774;28;20221;-58
2021/06/09 08:01:07;;;;;;;27.85;25.33;;;19.70;99.90;;;21.07;78.08;98376.84;5227091;28;20194;-58
2021/06/09 08:03:39;;;;;;;25.45;23.30;;;19.70;99.90;;;21.15;77.23;98383.97;5226855;28;20685;-57
2021/06/09 08:06:15;;;;;;;25.80;23.50;;;19.60;99.90;;;21.26;76.07;98372.94;5226761;28;20223;-58
2021/06/09 08:08:48;;;;;;;26.40;24.00;;;19.60;99.90;;;21.18;77.18;98384.91;5227199;28;20724;-58
2021/06/09 08:11:21;;;;;;;27.85;25.35;;;19.60;99.90;;;21.11;77.24;98382.13;5227032;28;20231;-57
2021/06/09 08:13:54;;;;;;;25.20;23.02;;;19.70;99.90;;;21.00;78.72;98387.91;5225751;28;20583;-57
2021/06/09 08:16:28;;;;;;;25.75;23.48;;;19.60;99.90;;;21.09;78.67;98383.84;5226743;28;20685;-59
2021/06/09 08:19:04;;;;;;;27.95;25.55;;;19.80;99.90;;;21.20;76.93;98391.00;5226556;28;20207;-59
2021/06/09 08:21:38;;;;;;;25.40;23.20;;;19.70;99.90;;;21.22;77.23;98386.72;5226965;28;20193;-57
2021/06/09 08:24:11;;;;;;;28.27;25.77;;;19.90;99.90;;;21.39;77.20;98392.34;5226314;28;20228;-59
2021/06/09 08:26:44;;;;;;;24.05;22.00;;;20.00;99.90;;;21.44;76.44;98386.41;5227108;28;20210;-57
2021/06/09 08:29:17;;;;;;;26.02;23.77;;;20.10;99.90;;;21.45;76.19;98393.34;5226301;28;20649;-57
2021/06/09 08:31:49;;;;;;;24.83;22.67;;;20.20;99.90;;;21.52;77.34;98402.19;5226472;28;20217;-59
2021/06/09 08:34:22;;;;;;;24.05;21.85;;;20.30;99.90;;;21.86;74.74;98401.16;5225720;28;20201;-58
2021/06/09 08:36:56;;;;;;;22.30;20.30;;;20.50;99.90;;;22.23;72.29;98399.34;5226069;28;20224;-58
2021/06/09 08:39:29;;;;;;;22.13;20.33;;;20.70;99.90;;;22.60;71.95;98402.66;5218821;28;20216;-58
2021/06/09 08:42:06;;;;;;;21.80;19.92;;;21.10;99.90;;;22.85;70.42;98404.84;5225163;28;20579;-58
2021/06/09 08:44:42;;;;;;;22.95;21.00;;;21.40;99.90;;;23.03;69.08;98396.47;5225829;28;20216;-59
2021/06/09 08:47:16;;;;;;;22.00;20.30;;;21.60;99.90;;;23.23;66.86;98396.78;5225915;28;20217;-58
2021/06/09 08:49:49;;;;;;;20.42;18.83;;;21.70;99.90;;;23.41;66.71;98390.09;5226294;28;20207;-57
2021/06/09 08:52:25;;;;;;;21.58;19.80;;;22.00;99.90;;;23.72;66.00;98397.56;5225821;28;20220;-59
2021/06/09 08:54:57;;;;;;;21.25;19.52;;;22.10;99.90;;;24.02;64.81;98391.81;5224824;28;20193;-59
2021/06/09 08:57:31;;;;;;;20.05;18.45;;;22.30;99.90;;;24.43;64.50;98396.66;5225784;28;20207;-59
2021/06/09 09:00:06;;;;;;;21.08;19.27;;;22.90;99.90;;;24.96;62.15;98392.81;5224999;28;20266;-58
2021/06/09 09:02:39;;;;;;;19.17;17.60;;;23.50;99.90;;;25.44;60.68;98393.19;5205116;28;20204;-59
2021/06/09 09:05:13;;;;;;;19.77;18.08;;;24.10;99.90;;;25.83;58.75;98387.34;5205313;28;20223;-58
2021/06/09 09:07:47;;;;;;;20.08;18.35;;;24.60;99.90;;;25.97;57.84;98401.38;5205819;28;20461;-59
2021/06/09 09:10:20;;;;;;;18.67;17.25;;;24.20;99.90;;;25.59;56.61;98399.41;5205317;28;20583;-59
2021/06/09 09:12:53;;;;;;;20.85;19.13;;;24.10;99.90;;;24.73;60.40;98401.34;5223477;28;20595;-58
2021/06/09 09:15:26;;;;;;;18.85;17.25;;;23.50;99.90;;;25.11;58.86;98405.16;5225043;28;20220;-58
2021/06/09 09:18:00;;;;;;;19.73;18.13;;;23.80;99.90;;;25.34;59.28;98401.00;5221698;28;20669;-59
2021/06/09 09:20:36;;;;;;;19.70;18.27;;;23.90;99.90;;;25.40;56.67;98394.91;5205536;28;20582;-59
2021/06/09 09:23:22;;;;;;;19.63;18.02;;;23.80;99.90;;;25.35;58.81;98404.47;5204136;28;20204;-61
2021/06/09 09:25:57;;;;;;;20.67;19.08;;;23.70;99.90;;;25.45;57.69;98401.06;5212601;28;20216;-59
2021/06/09 09:28:33;;;;;;;19.48;17.85;;;24.10;99.90;;;25.57;58.10;98403.75;5225507;28;20587;-59
2021/06/09 09:31:09;;;;;;;18.02;16.63;;;24.40;99.90;;;25.86;56.99;98403.06;5225716;28;20196;-59
2021/06/09 09:33:42;;;;;;;17.27;15.88;;;24.60;99.90;;;25.99;56.05;98402.28;5212467;28;20739;-59
2021/06/09 09:36:26;;;;;;;15.65;14.48;;;24.60;99.90;;;26.00;56.65;98396.16;5205019;28;20225;-60
2021/06/09 09:39:00;;;;;;;19.00;17.60;;;24.60;99.90;;;25.99;56.32;98389.16;5221950;28;20207;-59
2021/06/09 09:41:34;;;;;;;18.48;16.98;;;24.40;99.90;;;26.03;56.81;98396.16;5225643;28;20192;-60
2021/06/09 09:44:08;;;;;;;17.58;16.05;;;24.40;99.90;;;26.31;55.44;98385.78;5224888;28;20212;-59
2021/06/09 09:46:52;;;;;;;18.52;17.08;;;24.80;99.90;;;26.27;54.61;98389.28;5225153;28;20737;-59
2021/06/09 09:49:25;;;;;;;16.35;15.15;;;24.90;99.90;;;26.32;55.25;98392.75;5225625;28;20197;-60
2021/06/09 09:52:01;;;;;;;15.65;14.52;;;24.60;99.90;;;26.16;56.47;98380.50;5225609;28;20245;-59
2021/06/09 09:54:37;;;;;;;17.10;15.82;;;24.60;99.90;;;26.10;55.49;98381.34;5223727;28;20202;-60
2021/06/09 09:57:13;;;;;;;14.13;13.13;;;24.70;99.90;;;26.15;56.50;98378.72;5225300;28;20224;-59
2021/06/09 09:59:55;;;;;;;15.50;14.40;;;24.80;99.90;;;26.36;56.23;98373.56;5219230;28;20567;-58
2021/06/09 10:02:27;;;;;;;14.02;13.02;;;25.20;99.90;;;26.70;55.05;98386.78;5222125;28;20284;-58
2021/06/09 10:05:10;;;;;;;16.23;15.02;;;25.70;99.90;;;26.71;54.09;98370.16;5220217;28;20207;-60
2021/06/09 10:08:04;;;;;;;15.75;14.50;;;25.70;99.90;;;26.58;54.05;98371.00;5208414;28;20196;-59
2021/06/09 10:10:38;;;;;;;14.95;13.85;;;25.50;99.90;;;26.51;53.95;98368.38;5216113;28;20194;-59
2021/06/09 10:13:14;;;;;;;14.88;13.80;;;25.50;99.90;;;26.44;53.69;98366.59;5218585;28;20700;-59
2021/06/09 10:15:47;;;;;;;14.52;13.48;;;25.30;99.90;;;26.52;53.52;98369.25;5220806;28;20665;-58
2021/06/09 10:18:24;;;;;;;13.32;12.32;;;25.60;99.90;;;26.58;53.05;98368.38;5222830;28;20207;-60
2021/06/09 10:20:57;;;;;;;12.60;11.70;;;25.60;99.90;;;26.56;53.95;98364.91;5218359;28;20196;-58
2021/06/09 10:23:35;;;;;;;13.23;12.23;;;25.50;99.90;;;26.61;53.89;98369.28;5205158;28;20292;-59
2021/06/09 10:26:11;;;;;;;13.70;12.63;;;25.60;99.90;;;26.40;54.72;98374.44;5219011;28;20606;-59
2021/06/09 10:29:03;;;;;;;12.93;11.93;;;25.60;99.90;;;26.32;54.94;98373.53;5217384;28;20683;-60
2021/06/09 10:31:40;;;;;;;12.60;11.70;;;25.40;99.90;;;26.29;55.08;98370.03;5223241;28;20305;-64
2021/06/09 10:34:13;;;;;;;13.93;12.82;;;25.30;99.90;;;26.29;54.85;98377.03;5222423;28;20258;-64
2021/06/09 10:36:48;;;;;;;13.27;12.35;;;25.30;99.90;;;26.07;55.18;98363.00;5227868;28;20216;-64